Airfield :
LOGIN :

Register | Disclaimer

   EN    FR    IT 

 










Legend :    VFR   Marginal VFR   IFR   Intensive IFR   Very Intensive IFR
Visi :
Ceiling :
>= 8 km
>= 3000ft
5 to 8 km
1000 to 3000 ft
1500m to 5 km
500 to 1000 ft
800 to 1500m
200 to 500 ft
< 800m
< 200 ft
Symbols :   Thunderstorms  Fog  Heavy snow  Heavy precipitations  Wind > 20 kt
SIGMETs :     Misc.  Thunderstorms  Icing  Turbulence  Mountain Waves  Volcanic Ashes







- Airport Elevation : 65 ft
- IATA code : PIK
- Download approach charts


EGPK - Glasgow Prestwick

CURRENT METAR :
  • 161650Z 24007KT 9999 FEW025 19/14 Q1016

EXPIRED METARs :
  • 161620Z 23008KT 9999 FEW025 19/15 Q1016
  • 161550Z 23008KT 9999 FEW025 19/14 Q1016
  • 161520Z 24008KT 9999 FEW025 20/15 Q1017
  • 161450Z 22011KT 9999 FEW023 SCT042 20/15 Q1017
  • 161420Z 22008KT 9999 FEW023 SCT042 19/16 Q1017

TAF TAF EGPK
Valid from the 16 at 12:00 until the 17 at 12:00 UTC


161102Z 1612/1712 21007KT 9999 FEW015
PROB40
TEMPO 1710/1712 7000 RA BKN012
No reported NOTAMs for that airfield.



MET'MAP, your aeronautical weather chart ! - Copyright ORBIFLY December 2007 - Disclaimer

ORBIFLY MET'MAP TEAM :

Programming & Development : Alexandra Zaïnal
Concept & Development : Baudouin d'Aumeries
Co-Development & Prog : Marc-Olivier Méhu
Technical & hardware support : Manuel Goepfert

Contact : metmap@orbifly.com




SOURCES & CREDITS :

   NOAA